Time;durP1;ratioP1;P1;durP2;ratioP2;P2;SDS_P1;SDS_P2;PMS_P1;PMS_P2;Temp;Humidity;BMP_temperature;BMP_pressure;BME280_temperature;BME280_humidity;BME280_pressure;Samples;Min_cycle;Max_cycle;Signal;HPM_P1;HPM_P2
2021/05/22 00:00:58;;;;;;;3.50;1.25;;;12.80;78.30;;;;;;4937327;29;20023;-75
2021/05/22 00:03:24;;;;;;;2.35;1.35;;;12.80;78.60;;;;;;4955088;29;20552;-74
2021/05/22 00:05:49;;;;;;;3.50;1.27;;;12.70;78.80;;;;;;4954572;29;20061;-74
2021/05/22 00:08:15;;;;;;;3.70;1.60;;;12.70;79.10;;;;;;4955113;29;20019;-75
2021/05/22 00:10:41;;;;;;;3.42;1.00;;;12.80;78.70;;;;;;4953692;29;20023;-75
2021/05/22 00:13:07;;;;;;;5.15;1.25;;;12.80;79.00;;;;;;4954137;29;20440;-75
2021/05/22 00:15:32;;;;;;;2.88;1.20;;;12.80;79.10;;;;;;4937452;29;20364;-74
2021/05/22 00:17:58;;;;;;;4.90;1.10;;;12.80;78.50;;;;;;4954373;29;20447;-74
2021/05/22 00:20:24;;;;;;;3.17;1.10;;;12.70;78.60;;;;;;4954215;28;20411;-75
2021/05/22 00:22:50;;;;;;;5.75;1.05;;;12.70;78.70;;;;;;4953949;29;20020;-75
2021/05/22 00:25:16;;;;;;;5.50;1.30;;;12.70;78.80;;;;;;4969953;28;20019;-75
2021/05/22 00:27:42;;;;;;;5.82;1.17;;;12.70;77.60;;;;;;4937805;29;20030;-75
2021/05/22 00:30:10;;;;;;;6.18;1.90;;;12.70;78.00;;;;;;4954110;29;20023;-75
2021/05/22 00:32:37;;;;;;;5.68;1.23;;;12.80;77.20;;;;;;4954661;29;20159;-75
2021/05/22 00:35:03;;;;;;;4.28;1.35;;;12.70;77.70;;;;;;4953966;29;20019;-75
2021/05/22 00:37:29;;;;;;;4.03;1.00;;;12.70;76.20;;;;;;4954546;29;20043;-74
2021/05/22 00:39:54;;;;;;;3.55;1.20;;;12.70;76.20;;;;;;4953847;29;20062;-74
2021/05/22 00:42:20;;;;;;;1.77;1.02;;;12.70;77.00;;;;;;4954694;29;20034;-75
2021/05/22 00:45:09;;;;;;;8.10;1.20;;;12.70;77.00;;;;;;4954446;29;20015;-75
2021/05/22 00:47:44;;;;;;;3.63;1.05;;;12.70;76.90;;;;;;4954467;28;20034;-74
2021/05/22 00:50:32;;;;;;;6.10;1.23;;;12.70;76.90;;;;;;4953970;29;20066;-74
2021/05/22 00:53:00;;;;;;;5.13;1.35;;;12.70;76.20;;;;;;4951121;29;20035;-74
2021/05/22 00:55:26;;;;;;;4.32;1.05;;;12.60;76.10;;;;;;4954046;28;20502;-75
2021/05/22 00:57:52;;;;;;;2.60;0.90;;;12.70;76.60;;;;;;4936522;29;20420;-75
2021/05/22 01:00:28;;;;;;;4.25;0.90;;;12.70;75.90;;;;;;4936581;29;20026;-75
2021/05/22 01:02:54;;;;;;;5.00;1.45;;;12.70;75.80;;;;;;4953632;29;20027;-74
2021/05/22 01:05:20;;;;;;;5.35;0.90;;;12.60;76.00;;;;;;4954312;29;20419;-75
2021/05/22 01:07:48;;;;;;;5.55;1.10;;;12.70;76.70;;;;;;4954138;29;20073;-74
2021/05/22 01:10:15;;;;;;;5.82;1.35;;;12.70;76.30;;;;;;4953459;29;20034;-74
2021/05/22 01:12:46;;;;;;;5.78;1.15;;;12.80;76.00;;;;;;4954454;29;20023;-75
2021/05/22 01:15:19;;;;;;;4.13;1.13;;;12.70;75.40;;;;;;4953274;29;20102;-74
2021/05/22 01:17:48;;;;;;;3.95;0.90;;;12.70;75.80;;;;;;4954242;29;20466;-74
2021/05/22 01:20:51;;;;;;;7.00;1.13;;;12.70;75.90;;;;;;4953383;29;20027;-75
2021/05/22 01:23:21;;;;;;;3.33;1.08;;;12.70;75.80;;;;;;4953694;29;20031;-75
2021/05/22 01:25:49;;;;;;;3.03;1.13;;;12.70;75.80;;;;;;4953974;29;20023;-75
2021/05/22 01:28:15;;;;;;;3.78;1.02;;;12.70;75.10;;;;;;4953394;29;20026;-75
2021/05/22 01:30:43;;;;;;;2.95;1.08;;;12.70;75.60;;;;;;4952531;29;20023;-74
2021/05/22 01:33:09;;;;;;;3.88;0.80;;;12.70;75.10;;;;;;4956484;28;20042;-74
2021/05/22 01:35:36;;;;;;;4.20;1.30;;;12.70;75.00;;;;;;4957835;29;20027;-75
2021/05/22 01:38:01;;;;;;;4.60;1.10;;;12.80;75.60;;;;;;4955780;29;20055;-74
2021/05/22 01:40:27;;;;;;;1.65;0.93;;;12.70;74.70;;;;;;4957753;29;20054;-74
2021/05/22 01:42:53;;;;;;;5.13;1.33;;;12.70;74.90;;;;;;4957356;29;20031;-74
2021/05/22 01:45:29;;;;;;;6.25;1.77;;;12.70;75.20;;;;;;4957925;29;20027;-75
2021/05/22 01:47:56;;;;;;;1.92;0.98;;;12.70;75.20;;;;;;4957042;29;20031;-74
2021/05/22 01:50:23;;;;;;;3.97;1.42;;;12.70;74.90;;;;;;4957201;29;20035;-74
2021/05/22 01:52:53;;;;;;;1.80;1.00;;;12.60;75.00;;;;;;4956243;29;20356;-75
2021/05/22 01:55:21;;;;;;;3.88;1.15;;;12.60;75.60;;;;;;4957667;28;20178;-75
2021/05/22 01:57:46;;;;;;;5.25;1.15;;;12.60;75.60;;;;;;4957599;29;20030;-74
2021/05/22 02:00:14;;;;;;;5.22;1.02;;;12.60;75.70;;;;;;4956872;29;20407;-75
2021/05/22 02:03:15;;;;;;;1.75;0.90;;;12.60;75.00;;;;;;4957315;29;20027;-75
2021/05/22 02:05:41;;;;;;;4.82;1.00;;;12.70;75.80;;;;;;4953694;29;20039;-75
2021/05/22 02:08:16;;;;;;;4.60;0.88;;;12.60;75.50;;;;;;4955397;29;20374;-75
2021/05/22 02:10:42;;;;;;;2.97;1.05;;;12.70;75.10;;;;;;4957417;29;20507;-75
2021/05/22 02:13:08;;;;;;;3.80;1.10;;;12.70;75.60;;;;;;4956324;29;20027;-74
2021/05/22 02:15:37;;;;;;;3.70;1.00;;;12.70;75.30;;;;;;4956999;29;20348;-75
2021/05/22 02:18:05;;;;;;;5.32;0.90;;;12.60;75.80;;;;;;4956571;29;20019;-75
2021/05/22 02:20:32;;;;;;;5.50;1.10;;;12.60;75.60;;;;;;4957102;29;20026;-75
2021/05/22 02:23:01;;;;;;;5.18;1.10;;;12.60;75.90;;;;;;4956758;29;20023;-75
2021/05/22 02:25:27;;;;;;;4.03;1.13;;;12.60;76.00;;;;;;4956997;29;20440;-75
2021/05/22 02:27:54;;;;;;;3.05;0.93;;;12.60;75.60;;;;;;4956642;29;20025;-75
2021/05/22 02:30:20;;;;;;;3.83;0.93;;;12.60;75.60;;;;;;4956932;29;20085;-75
2021/05/22 02:32:49;;;;;;;1.98;0.80;;;12.60;75.50;;;;;;4956998;29;20051;-74
2021/05/22 02:35:18;;;;;;;5.40;1.35;;;12.60;75.70;;;;;;4955978;29;20379;-74
2021/05/22 02:37:46;;;;;;;4.20;1.27;;;12.60;75.90;;;;;;4956824;29;20033;-75
2021/05/22 02:40:15;;;;;;;3.22;1.58;;;12.50;75.50;;;;;;4956011;29;20027;-75
2021/05/22 02:42:50;;;;;;;2.97;0.95;;;12.50;76.10;;;;;;4956270;28;20466;-75
2021/05/22 02:45:17;;;;;;;3.80;0.85;;;12.50;76.20;;;;;;4955961;29;20468;-75
2021/05/22 02:47:46;;;;;;;3.05;1.02;;;12.50;76.40;;;;;;4955429;29;20026;-75
2021/05/22 02:50:12;;;;;;;2.50;1.05;;;12.50;76.40;;;;;;4956211;29;20035;-75
2021/05/22 02:52:39;;;;;;;3.75;0.80;;;12.50;76.50;;;;;;4956842;29;20050;-75
2021/05/22 02:55:09;;;;;;;3.53;1.17;;;12.50;76.40;;;;;;4955604;28;20043;-74
2021/05/22 02:57:38;;;;;;;1.63;0.88;;;12.50;76.30;;;;;;4956566;29;20058;-75
2021/05/22 03:00:05;;;;;;;4.90;1.25;;;12.40;76.00;;;;;;4954483;29;20125;-74
2021/05/22 03:02:33;;;;;;;1.98;0.95;;;12.40;76.50;;;;;;4955157;29;20023;-76
2021/05/22 03:04:59;;;;;;;3.50;0.80;;;12.40;76.60;;;;;;4954452;29;20106;-75
2021/05/22 03:07:26;;;;;;;2.78;0.80;;;12.50;76.80;;;;;;4956315;29;20015;-75
2021/05/22 03:09:51;;;;;;;1.25;0.70;;;12.50;76.30;;;;;;4956290;29;20019;-74
2021/05/22 03:12:27;;;;;;;3.20;1.42;;;12.50;76.30;;;;;;4955600;29;20026;-75
2021/05/22 03:14:52;;;;;;;4.93;1.20;;;12.40;77.60;;;;;;4956267;29;20066;-75
2021/05/22 03:17:19;;;;;;;4.00;1.20;;;12.40;77.90;;;;;;4955271;29;20228;-74
2021/05/22 03:19:44;;;;;;;4.88;0.93;;;12.40;77.90;;;;;;4955977;29;20482;-75
2021/05/22 03:22:10;;;;;;;4.22;0.90;;;12.40;77.90;;;;;;4955439;29;20028;-74
2021/05/22 03:24:36;;;;;;;5.25;1.38;;;12.40;77.80;;;;;;4955660;29;20031;-75
2021/05/22 03:27:02;;;;;;;2.95;1.10;;;12.40;77.90;;;;;;4955334;29;20051;-75
2021/05/22 03:29:27;;;;;;;2.88;1.00;;;12.40;77.70;;;;;;4955898;29;20039;-76
2021/05/22 03:31:53;;;;;;;2.70;0.70;;;12.40;77.60;;;;;;4955680;29;20079;-75
2021/05/22 03:34:19;;;;;;;1.67;0.95;;;12.40;76.90;;;;;;4955215;29;20074;-74
2021/05/22 03:36:45;;;;;;;3.55;0.88;;;12.50;76.70;;;;;;4954463;29;20107;-75
2021/05/22 03:39:11;;;;;;;1.77;0.90;;;12.40;77.20;;;;;;4954975;29;20114;-75
2021/05/22 03:41:36;;;;;;;2.17;0.95;;;12.50;77.40;;;;;;4938670;29;20424;-75
2021/05/22 03:44:02;;;;;;;4.20;0.88;;;12.50;77.20;;;;;;4954783;29;20020;-75
2021/05/22 03:46:29;;;;;;;1.23;0.70;;;12.50;77.20;;;;;;4955579;29;20066;-75
2021/05/22 03:48:54;;;;;;;5.35;1.33;;;12.50;77.10;;;;;;4955518;29;20030;-75
2021/05/22 03:51:20;;;;;;;3.75;0.98;;;12.50;77.10;;;;;;4937817;29;20442;-75
2021/05/22 03:53:46;;;;;;;2.50;0.70;;;12.50;76.70;;;;;;4955115;29;20030;-75
2021/05/22 03:56:11;;;;;;;2.38;0.90;;;12.50;75.80;;;;;;4956100;28;20054;-75
2021/05/22 03:58:37;;;;;;;1.35;0.90;;;12.50;76.10;;;;;;4955309;29;20050;-75
2021/05/22 04:01:03;;;;;;;2.03;0.70;;;12.50;76.30;;;;;;4954747;29;20383;-74
2021/05/22 04:03:29;;;;;;;1.75;0.95;;;12.50;76.50;;;;;;4955227;29;20027;-75
2021/05/22 04:05:54;;;;;;;3.00;1.00;;;12.50;76.90;;;;;;4955017;29;20478;-75
2021/05/22 04:08:20;;;;;;;1.25;0.77;;;12.50;76.70;;;;;;4954336;29;20024;-75
2021/05/22 04:10:46;;;;;;;3.80;1.05;;;12.50;76.80;;;;;;4953788;29;20415;-75
2021/05/22 04:13:11;;;;;;;4.10;1.13;;;12.50;77.10;;;;;;4953180;29;20015;-75
2021/05/22 04:15:37;;;;;;;7.28;1.27;;;12.60;77.50;;;;;;4955130;29;20027;-75
2021/05/22 04:18:04;;;;;;;2.75;0.93;;;12.60;76.80;;;;;;4954747;29;20020;-75
2021/05/22 04:20:29;;;;;;;2.63;1.10;;;12.50;76.70;;;;;;4937754;29;20033;-75
2021/05/22 04:22:55;;;;;;;3.03;1.08;;;12.60;76.80;;;;;;4954755;29;20110;-75
2021/05/22 04:25:21;;;;;;;1.98;0.85;;;12.50;77.30;;;;;;4953966;29;20126;-75
2021/05/22 04:27:46;;;;;;;4.20;1.00;;;12.50;77.10;;;;;;4954819;29;20102;-74
2021/05/22 04:30:13;;;;;;;4.18;1.05;;;12.60;77.50;;;;;;4953928;29;20027;-74
2021/05/22 04:32:38;;;;;;;4.00;1.08;;;12.60;77.30;;;;;;4954404;29;20027;-74
2021/05/22 04:35:05;;;;;;;2.90;1.00;;;12.60;77.70;;;;;;4954835;29;20455;-74
2021/05/22 04:37:31;;;;;;;2.40;0.73;;;12.50;78.40;;;;;;4953002;29;20030;-75
2021/05/22 04:39:56;;;;;;;5.38;2.00;;;12.50;79.10;;;;;;4954220;29;20023;-74
2021/05/22 04:42:22;;;;;;;4.82;1.08;;;12.40;80.20;;;;;;4953880;29;20032;-75
2021/05/22 04:44:48;;;;;;;1.67;1.08;;;12.30;80.40;;;;;;4954399;29;20026;-75
2021/05/22 04:47:13;;;;;;;3.63;1.08;;;12.20;80.70;;;;;;4936779;29;20034;-75
2021/05/22 04:49:39;;;;;;;4.38;1.10;;;12.20;81.80;;;;;;4935192;29;20032;-75
2021/05/22 04:52:05;;;;;;;6.68;2.00;;;12.20;82.40;;;;;;4918073;29;20452;-75
2021/05/22 04:54:31;;;;;;;1.75;1.33;;;12.20;82.80;;;;;;4934634;29;20047;-75
2021/05/22 04:56:56;;;;;;;4.85;1.48;;;12.10;83.10;;;;;;4935236;29;20162;-74
2021/05/22 04:59:22;;;;;;;5.30;1.10;;;12.10;83.90;;;;;;4917003;29;20034;-74
2021/05/22 05:01:48;;;;;;;4.20;1.17;;;12.00;84.80;;;;;;4917961;29;20092;-74
2021/05/22 05:04:13;;;;;;;5.22;1.20;;;12.00;86.10;;;;;;4934385;29;20503;-74
2021/05/22 05:06:39;;;;;;;6.40;1.65;;;11.90;86.80;;;;;;4934798;29;20095;-75
2021/05/22 05:09:07;;;;;;;4.13;1.08;;;11.70;87.80;;;;;;4934959;29;20035;-74
2021/05/22 05:11:33;;;;;;;11.80;1.92;;;11.70;88.20;;;;;;4917853;29;20059;-74
2021/05/22 05:13:59;;;;;;;5.22;1.60;;;11.50;88.70;;;;;;4934347;29;20054;-75
2021/05/22 05:16:24;;;;;;;4.93;1.27;;;11.50;88.90;;;;;;4934579;29;20023;-74
2021/05/22 05:18:51;;;;;;;6.78;1.48;;;11.40;89.50;;;;;;4933464;29;20164;-75
2021/05/22 05:21:17;;;;;;;6.82;1.98;;;11.40;90.00;;;;;;4934058;29;20357;-75
2021/05/22 05:23:43;;;;;;;3.58;1.38;;;11.40;90.30;;;;;;4934749;29;20031;-73
2021/05/22 05:26:09;;;;;;;4.38;1.30;;;11.30;90.40;;;;;;4934264;29;20018;-74
2021/05/22 05:28:35;;;;;;;7.28;1.92;;;11.30;90.90;;;;;;4935326;29;20020;-74
2021/05/22 05:31:01;;;;;;;7.28;1.85;;;11.30;90.80;;;;;;4933595;29;20020;-73
2021/05/22 05:33:26;;;;;;;8.73;1.55;;;11.20;91.40;;;;;;4934513;29;20070;-74
2021/05/22 05:35:52;;;;;;;5.97;1.90;;;11.20;91.80;;;;;;4933454;29;20043;-74
2021/05/22 05:38:18;;;;;;;4.40;2.05;;;11.10;91.80;;;;;;4934144;29;20107;-74
2021/05/22 05:40:45;;;;;;;3.40;1.55;;;11.10;92.00;;;;;;4934751;29;20035;-74
2021/05/22 05:43:11;;;;;;;5.15;1.80;;;11.10;92.40;;;;;;4933833;29;20367;-74
2021/05/22 05:45:40;;;;;;;5.97;1.80;;;11.00;92.70;;;;;;4934792;29;20016;-74
2021/05/22 05:48:07;;;;;;;6.25;1.77;;;11.00;93.10;;;;;;4934663;29;20024;-73
2021/05/22 05:50:34;;;;;;;3.70;1.73;;;11.00;93.20;;;;;;4933989;29;20102;-73
2021/05/22 05:53:00;;;;;;;7.35;1.98;;;11.10;93.50;;;;;;4934436;29;20087;-73
2021/05/22 05:55:26;;;;;;;7.85;2.05;;;11.00;93.60;;;;;;4933750;29;20094;-74
2021/05/22 05:57:55;;;;;;;7.25;2.08;;;11.00;93.80;;;;;;4933325;29;20027;-73
2021/05/22 06:00:21;;;;;;;4.55;1.63;;;11.00;93.90;;;;;;4916655;29;20126;-73
2021/05/22 06:02:47;;;;;;;4.85;2.00;;;11.00;94.10;;;;;;4934218;29;20056;-74
2021/05/22 06:05:13;;;;;;;7.47;1.90;;;10.90;94.40;;;;;;4933853;29;20019;-74
2021/05/22 06:07:39;;;;;;;14.00;3.00;;;10.90;94.50;;;;;;4917440;29;20019;-74
2021/05/22 06:10:06;;;;;;;8.43;2.20;;;10.90;94.50;;;;;;4934171;29;20159;-74
2021/05/22 06:12:32;;;;;;;7.20;2.15;;;10.90;94.70;;;;;;4916779;29;20379;-75
2021/05/22 06:15:07;;;;;;;7.75;2.10;;;10.90;94.80;;;;;;4934519;29;20016;-75
2021/05/22 06:17:33;;;;;;;14.80;6.22;;;10.90;94.90;;;;;;4933897;29;20484;-75
2021/05/22 06:19:59;;;;;;;6.47;2.50;;;10.90;95.00;;;;;;4936032;29;20030;-75
2021/05/22 06:22:24;;;;;;;7.45;2.35;;;10.90;95.00;;;;;;4937623;29;20048;-75
2021/05/22 06:24:50;;;;;;;6.68;2.50;;;10.90;94.90;;;;;;4938158;29;20031;-75
2021/05/22 06:27:15;;;;;;;7.68;2.40;;;11.00;94.90;;;;;;4937185;29;20024;-75
2021/05/22 06:29:41;;;;;;;8.90;1.88;;;10.90;94.90;;;;;;4937917;29;20031;-75
2021/05/22 06:32:07;;;;;;;5.68;2.40;;;10.90;95.10;;;;;;4937817;29;20349;-74
2021/05/22 06:34:34;;;;;;;6.25;2.65;;;10.90;95.30;;;;;;4920142;29;20408;-75
2021/05/22 06:36:59;;;;;;;7.43;2.45;;;10.90;95.70;;;;;;4938058;29;20063;-74
2021/05/22 06:39:25;;;;;;;7.38;2.15;;;10.90;95.40;;;;;;4936797;29;20420;-74
2021/05/22 06:41:51;;;;;;;4.85;2.05;;;10.90;95.60;;;;;;4937721;29;20049;-74
2021/05/22 06:44:23;;;;;;;7.60;2.60;;;10.90;95.70;;;;;;4936840;29;20456;-74
2021/05/22 06:46:49;;;;;;;6.15;2.22;;;10.90;95.80;;;;;;4920459;29;20043;-74
2021/05/22 06:49:15;;;;;;;8.00;2.20;;;10.90;95.70;;;;;;4937611;29;20059;-75
2021/05/22 06:51:42;;;;;;;6.07;2.15;;;10.90;96.00;;;;;;4937763;29;20102;-73
2021/05/22 06:54:07;;;;;;;8.35;2.35;;;10.90;96.10;;;;;;4920300;29;20019;-76
2021/05/22 06:56:33;;;;;;;8.60;2.63;;;10.90;96.10;;;;;;4935466;29;20027;-76
2021/05/22 06:58:58;;;;;;;5.32;2.20;;;10.90;96.30;;;;;;4935899;29;20023;-75
2021/05/22 07:01:24;;;;;;;6.82;2.90;;;11.00;96.40;;;;;;4936711;29;20372;-75
2021/05/22 07:03:50;;;;;;;4.13;2.30;;;11.00;96.30;;;;;;4937277;29;20079;-76
2021/05/22 07:06:16;;;;;;;6.30;2.28;;;10.90;96.30;;;;;;4935619;29;20051;-75
2021/05/22 07:08:42;;;;;;;5.78;2.00;;;10.90;96.40;;;;;;4937227;29;20035;-75
2021/05/22 07:11:08;;;;;;;7.55;2.00;;;11.00;96.40;;;;;;4937419;29;20027;-76
2021/05/22 07:13:33;;;;;;;9.60;2.33;;;11.00;96.40;;;;;;4936482;29;20413;-75
2021/05/22 07:15:59;;;;;;;9.57;2.97;;;11.00;96.40;;;;;;4937050;29;20068;-75
2021/05/22 07:18:25;;;;;;;7.28;2.63;;;11.00;96.50;;;;;;4936402;29;20367;-75
2021/05/22 07:20:51;;;;;;;8.88;2.60;;;11.00;96.60;;;;;;4936897;29;20030;-75
2021/05/22 07:23:17;;;;;;;7.22;2.33;;;11.00;96.60;;;;;;4936859;29;20062;-76
2021/05/22 07:25:42;;;;;;;6.97;2.90;;;11.00;96.60;;;;;;4936973;29;20023;-75
2021/05/22 07:28:12;;;;;;;4.82;2.30;;;11.00;96.50;;;;;;4937019;29;20479;-75
2021/05/22 07:30:38;;;;;;;7.63;2.78;;;11.00;96.70;;;;;;4934583;29;20038;-75
2021/05/22 07:33:04;;;;;;;6.53;3.08;;;11.00;96.80;;;;;;4919533;29;20023;-76
2021/05/22 07:35:29;;;;;;;8.43;2.47;;;10.90;96.80;;;;;;4936033;29;20024;-76
2021/05/22 07:37:55;;;;;;;6.28;2.58;;;10.90;96.80;;;;;;4936346;29;20075;-75
2021/05/22 07:40:20;;;;;;;8.77;2.72;;;11.00;96.90;;;;;;4935885;29;20031;-75
2021/05/22 07:42:50;;;;;;;6.93;2.88;;;11.00;96.90;;;;;;4936577;29;20448;-75
2021/05/22 07:45:18;;;;;;;5.50;2.83;;;11.00;96.80;;;;;;4936486;29;20020;-74
2021/05/22 07:47:44;;;;;;;5.13;2.40;;;11.00;96.90;;;;;;4918677;29;20024;-76
2021/05/22 07:50:11;;;;;;;10.45;2.78;;;11.00;97.00;;;;;;4936087;29;20030;-76
2021/05/22 07:52:38;;;;;;;7.90;2.58;;;11.10;96.90;;;;;;4935798;29;20071;-76
2021/05/22 07:55:04;;;;;;;7.65;2.65;;;11.10;96.30;;;;;;4938358;29;20048;-76
2021/05/22 07:57:29;;;;;;;9.00;2.60;;;11.10;96.40;;;;;;4935462;29;20023;-75
2021/05/22 07:59:55;;;;;;;6.20;2.38;;;11.00;96.50;;;;;;4934814;29;20031;-75
2021/05/22 08:02:21;;;;;;;3.00;1.90;;;11.00;96.40;;;;;;4935591;29;20460;-75
2021/05/22 08:04:46;;;;;;;4.70;2.03;;;11.00;96.50;;;;;;4936078;29;20031;-75
2021/05/22 08:07:13;;;;;;;7.57;2.47;;;11.10;96.60;;;;;;4936160;29;20114;-75
2021/05/22 08:09:38;;;;;;;6.25;2.78;;;11.10;96.70;;;;;;4918371;29;20028;-75
2021/05/22 08:12:05;;;;;;;6.38;2.55;;;11.10;96.70;;;;;;4934733;29;20022;-75
2021/05/22 08:14:30;;;;;;;5.43;2.20;;;11.20;96.70;;;;;;4934011;29;20031;-75
2021/05/22 08:16:56;;;;;;;5.05;2.35;;;11.20;96.60;;;;;;4950977;29;20340;-76
2021/05/22 08:19:22;;;;;;;4.30;2.42;;;11.20;96.60;;;;;;4954370;29;20108;-75
2021/05/22 08:21:48;;;;;;;5.60;1.98;;;11.20;96.50;;;;;;4954959;29;20110;-75
2021/05/22 08:24:14;;;;;;;6.05;2.58;;;11.20;96.50;;;;;;4955054;29;20015;-75
2021/05/22 08:26:40;;;;;;;7.47;2.38;;;11.20;96.60;;;;;;4954321;29;20023;-75
2021/05/22 08:29:07;;;;;;;8.10;2.67;;;11.20;96.70;;;;;;4954771;29;20066;-75
2021/05/22 08:31:33;;;;;;;8.30;3.10;;;11.30;96.70;;;;;;4936754;29;20023;-74
2021/05/22 08:34:00;;;;;;;7.00;2.78;;;11.30;97.00;;;;;;4937764;29;20042;-74
2021/05/22 08:36:25;;;;;;;6.82;2.40;;;11.40;96.70;;;;;;4954257;29;20023;-75
2021/05/22 08:38:53;;;;;;;9.55;2.72;;;11.40;96.80;;;;;;4954338;29;20101;-75
2021/05/22 08:41:19;;;;;;;4.88;2.50;;;11.40;96.80;;;;;;4954078;28;20081;-75
2021/05/22 08:43:44;;;;;;;5.75;2.72;;;11.40;96.90;;;;;;4953881;29;20027;-75
2021/05/22 08:46:11;;;;;;;5.50;3.10;;;11.40;97.00;;;;;;4954767;29;20112;-74
2021/05/22 08:48:37;;;;;;;8.52;3.00;;;11.40;97.00;;;;;;4954226;29;20102;-74
2021/05/22 08:51:06;;;;;;;8.13;2.80;;;11.30;96.90;;;;;;4954558;29;20467;-76
2021/05/22 08:53:32;;;;;;;4.93;2.15;;;11.30;97.10;;;;;;4936824;29;20115;-75
2021/05/22 08:55:58;;;;;;;8.43;2.63;;;11.40;97.10;;;;;;4966546;28;20155;-75
2021/05/22 08:58:24;;;;;;;6.40;2.92;;;11.40;97.10;;;;;;4973532;28;20023;-76
2021/05/22 09:00:49;;;;;;;9.32;3.25;;;11.50;97.00;;;;;;4972946;28;20026;-76
2021/05/22 09:03:15;;;;;;;11.32;3.22;;;11.40;96.80;;;;;;4955894;28;20114;-76
2021/05/22 09:05:44;;;;;;;13.90;3.42;;;11.30;97.40;;;;;;4955452;28;20018;-76
2021/05/22 09:08:15;;;;;;;7.05;3.10;;;11.30;97.20;;;;;;4956009;28;20022;-75
2021/05/22 09:10:50;;;;;;;6.47;3.00;;;11.30;97.30;;;;;;4955643;28;20052;-75
2021/05/22 09:13:32;;;;;;;6.70;2.92;;;11.30;97.30;;;;;;4973613;28;20022;-75
2021/05/22 09:16:00;;;;;;;6.00;2.90;;;11.30;97.30;;;;;;4973591;28;20026;-76
2021/05/22 09:18:32;;;;;;;9.40;3.50;;;11.30;97.30;;;;;;4972757;28;20011;-75
2021/05/22 09:21:00;;;;;;;6.60;3.63;;;11.30;97.40;;;;;;4973019;28;20034;-74
2021/05/22 09:23:39;;;;;;;8.95;2.97;;;11.30;97.40;;;;;;4972979;28;20027;-75
2021/05/22 09:26:17;;;;;;;7.38;3.42;;;11.40;97.30;;;;;;4973484;28;20459;-75
2021/05/22 09:28:46;;;;;;;10.95;4.03;;;11.30;97.40;;;;;;4972449;28;20019;-75
2021/05/22 09:31:19;;;;;;;8.45;3.90;;;11.30;97.40;;;;;;4973148;28;20470;-75
2021/05/22 09:33:45;;;;;;;10.95;4.72;;;11.40;97.50;;;;;;4955181;28;20015;-75
2021/05/22 09:36:13;;;;;;;11.48;4.95;;;11.40;97.40;;;;;;4973200;28;20042;-75
2021/05/22 09:38:51;;;;;;;8.25;4.07;;;11.40;97.50;;;;;;4955183;28;20015;-74
2021/05/22 09:41:33;;;;;;;11.35;4.00;;;11.50;97.60;;;;;;4973002;28;20027;-76
2021/05/22 09:44:13;;;;;;;9.02;4.30;;;11.60;97.40;;;;;;4972921;28;20047;-76
2021/05/22 09:46:44;;;;;;;11.05;4.43;;;11.60;97.30;;;;;;4972480;28;20342;-75
2021/05/22 09:49:18;;;;;;;8.38;4.68;;;11.60;97.10;;;;;;4972962;28;20027;-75
2021/05/22 09:52:12;;;;;;;7.95;3.97;;;11.60;97.30;;;;;;4972111;28;20455;-75
2021/05/22 09:54:41;;;;;;;7.85;4.55;;;11.60;97.30;;;;;;4968357;28;20514;-75
2021/05/22 09:57:08;;;;;;;8.45;4.22;;;11.50;97.20;;;;;;4957784;29;20047;-75
2021/05/22 09:59:34;;;;;;;8.43;4.10;;;11.50;97.10;;;;;;4956885;29;20106;-74
2021/05/22 10:02:00;;;;;;;8.18;4.40;;;11.50;97.30;;;;;;4940229;29;20423;-75
2021/05/22 10:04:26;;;;;;;8.95;4.25;;;11.50;97.40;;;;;;4957364;29;20023;-75
2021/05/22 10:06:53;;;;;;;9.13;3.95;;;11.50;97.50;;;;;;4956718;29;20043;-76
2021/05/22 10:09:21;;;;;;;10.45;4.53;;;11.50;97.40;;;;;;4957229;29;20035;-75
2021/05/22 10:12:07;;;;;;;12.40;5.25;;;11.60;97.50;;;;;;4939223;29;20054;-74
2021/05/22 10:14:44;;;;;;;11.98;5.10;;;11.50;97.40;;;;;;4956709;29;20023;-74
2021/05/22 10:17:12;;;;;;;9.45;5.18;;;11.50;97.60;;;;;;4948034;28;20050;-75
2021/05/22 10:19:39;;;;;;;7.72;4.25;;;11.50;97.60;;;;;;4957238;28;20042;-75
2021/05/22 10:22:06;;;;;;;12.13;4.95;;;11.50;97.60;;;;;;4956526;29;20027;-75
2021/05/22 10:24:33;;;;;;;8.63;4.13;;;11.60;97.90;;;;;;4938522;29;20027;-74
2021/05/22 10:26:59;;;;;;;8.10;4.82;;;11.60;97.60;;;;;;4956488;28;20031;-74
2021/05/22 10:29:26;;;;;;;10.00;5.30;;;11.60;97.50;;;;;;4929293;29;20054;-77
2021/05/22 10:31:53;;;;;;;10.45;4.97;;;11.60;97.50;;;;;;4919059;29;20116;-74
2021/05/22 10:34:24;;;;;;;10.70;4.78;;;11.60;97.40;;;;;;4927317;29;20028;-76
2021/05/22 10:36:57;;;;;;;11.15;5.15;;;11.70;97.40;;;;;;4939830;29;20459;-75
2021/05/22 10:39:36;;;;;;;10.45;5.78;;;11.70;97.40;;;;;;4945144;29;20028;-78
2021/05/22 10:42:02;;;;;;;10.73;4.80;;;11.80;97.20;;;;;;4929092;29;20388;-76
2021/05/22 10:44:34;;;;;;;10.02;5.32;;;11.80;97.20;;;;;;4946584;29;20024;-75
2021/05/22 10:47:14;;;;;;;8.68;4.82;;;11.80;97.10;;;;;;4944887;29;20023;-76
2021/05/22 10:49:57;;;;;;;9.93;5.47;;;11.90;97.20;;;;;;4931125;29;20360;-75
2021/05/22 10:52:24;;;;;;;10.60;5.45;;;12.00;97.00;;;;;;4941376;29;20054;-75
2021/05/22 10:54:59;;;;;;;9.13;5.47;;;11.90;96.80;;;;;;4950893;28;20049;-75
2021/05/22 10:57:26;;;;;;;9.70;5.10;;;12.00;96.80;;;;;;4949183;28;20026;-75
2021/05/22 11:00:14;;;;;;;12.18;4.95;;;12.00;96.60;;;;;;4965273;28;20122;-76
2021/05/22 11:02:43;;;;;;;8.93;5.07;;;12.00;96.60;;;;;;4967696;28;20035;-75
2021/05/22 11:05:25;;;;;;;8.82;4.72;;;11.90;96.80;;;;;;4954319;28;20026;-75
2021/05/22 11:08:03;;;;;;;12.00;4.72;;;12.00;96.80;;;;;;4948768;28;20127;-76
2021/05/22 11:10:48;;;;;;;10.20;5.32;;;12.00;96.80;;;;;;4969159;28;20041;-75
2021/05/22 11:13:22;;;;;;;9.02;5.35;;;12.10;96.80;;;;;;4966424;28;20471;-75
2021/05/22 11:15:51;;;;;;;10.13;5.25;;;12.10;96.90;;;;;;4952817;28;20475;-75
2021/05/22 11:18:20;;;;;;;11.07;5.90;;;12.10;96.90;;;;;;4958324;28;20019;-76
2021/05/22 11:21:11;;;;;;;9.75;5.57;;;12.20;96.90;;;;;;4973600;28;20090;-75
2021/05/22 11:24:06;;;;;;;10.48;5.05;;;12.20;96.90;;;;;;4954507;28;20082;-77
2021/05/22 11:27:18;;;;;;;9.18;5.32;;;12.20;96.90;;;;;;4956294;28;20091;-74
2021/05/22 11:29:55;;;;;;;12.18;6.05;;;12.20;96.80;;;;;;4952010;28;20070;-75
2021/05/22 11:32:42;;;;;;;11.90;6.15;;;12.10;97.00;;;;;;4956057;28;20379;-75
2021/05/22 11:35:34;;;;;;;16.38;5.90;;;12.10;97.30;;;;;;4955540;29;20034;-76
2021/05/22 11:38:14;;;;;;;13.50;5.82;;;12.10;97.50;;;;;;4937743;29;20019;-75
2021/05/22 11:40:40;;;;;;;13.75;6.30;;;12.10;97.60;;;;;;4937537;29;20038;-76
2021/05/22 11:43:15;;;;;;;10.77;5.20;;;12.10;97.60;;;;;;4955463;29;20085;-77
2021/05/22 11:45:45;;;;;;;11.70;5.25;;;12.00;97.80;;;;;;4937589;29;20024;-76
2021/05/22 11:48:27;;;;;;;9.63;4.68;;;12.00;98.30;;;;;;4955130;29;20031;-77
2021/05/22 11:50:57;;;;;;;9.63;4.30;;;12.00;98.00;;;;;;4954942;29;20023;-77
2021/05/22 11:53:24;;;;;;;9.30;4.20;;;12.00;98.20;;;;;;4955754;29;20027;-75
2021/05/22 11:55:59;;;;;;;10.95;3.53;;;12.00;98.20;;;;;;4947541;29;20047;-75
2021/05/22 11:58:25;;;;;;;6.68;3.63;;;12.00;98.40;;;;;;4936342;29;20035;-76
2021/05/22 12:00:51;;;;;;;7.72;3.33;;;12.10;98.40;;;;;;4935627;29;20031;-75
2021/05/22 12:03:28;;;;;;;7.82;3.60;;;12.10;98.30;;;;;;4949659;29;20075;-76
2021/05/22 12:05:55;;;;;;;7.25;3.83;;;12.20;98.30;;;;;;4950809;29;20583;-78
2021/05/22 12:08:25;;;;;;;7.35;3.30;;;12.20;98.20;;;;;;4935918;29;20046;-76
2021/05/22 12:10:51;;;;;;;6.57;3.10;;;12.20;98.20;;;;;;4935254;29;20035;-78
2021/05/22 12:13:17;;;;;;;6.28;3.10;;;12.20;98.20;;;;;;4935642;29;20031;-75
2021/05/22 12:15:44;;;;;;;10.43;4.45;;;12.20;98.30;;;;;;4952563;28;20403;-75
2021/05/22 12:18:16;;;;;;;10.57;4.25;;;12.20;98.20;;;;;;4954419;29;20079;-77
2021/05/22 12:20:52;;;;;;;9.07;4.70;;;12.10;98.30;;;;;;4953991;29;20038;-76
2021/05/22 12:23:26;;;;;;;10.30;4.30;;;12.10;98.50;;;;;;4954571;29;20030;-75
2021/05/22 12:25:53;;;;;;;9.90;4.50;;;12.10;98.50;;;;;;4936264;29;20361;-75
2021/05/22 12:28:21;;;;;;;8.70;4.20;;;12.10;98.50;;;;;;4954708;29;20034;-75
2021/05/22 12:30:47;;;;;;;13.18;5.20;;;12.30;98.50;;;;;;4953592;29;20042;-76
2021/05/22 12:33:16;;;;;;;12.10;5.18;;;12.30;98.30;;;;;;4953045;29;20062;-77
2021/05/22 12:35:43;;;;;;;14.93;5.22;;;12.30;98.30;;;;;;4953261;29;20023;-76
2021/05/22 12:38:08;;;;;;;10.88;5.03;;;12.30;98.40;;;;;;4953996;29;20027;-77
2021/05/22 12:40:49;;;;;;;13.80;5.50;;;12.30;98.30;;;;;;4966756;28;20091;-76
2021/05/22 12:43:16;;;;;;;12.63;5.78;;;12.40;98.30;;;;;;4951334;29;20032;-76
2021/05/22 12:45:44;;;;;;;11.75;5.72;;;12.30;98.30;;;;;;4953370;29;20031;-74
2021/05/22 12:48:23;;;;;;;12.15;4.95;;;12.30;98.20;;;;;;4937122;29;20106;-75
2021/05/22 12:50:49;;;;;;;12.88;5.50;;;12.30;98.20;;;;;;4947895;29;20119;-77
2021/05/22 12:53:28;;;;;;;15.77;6.25;;;12.30;98.10;;;;;;4935112;29;20059;-75